sensor_id;sensor_type;location;lat;lon;timestamp;pressure;altitude;pressure_sealevel;temperature;humidity
80759;BME280;70150;45.582;10.178;2023-07-09T00:02:15;100373.53;;;24.04;61.01
80759;BME280;70150;45.582;10.178;2023-07-09T00:04:42;100378.50;;;24.09;61.05
80759;BME280;70150;45.582;10.178;2023-07-09T00:09:41;100370.94;;;24.13;60.75
80759;BME280;70150;45.582;10.178;2023-07-09T00:12:13;100373.38;;;24.11;60.89
80759;BME280;70150;45.582;10.178;2023-07-09T00:14:39;100367.88;;;24.11;61.02
80759;BME280;70150;45.582;10.178;2023-07-09T00:17:09;100372.34;;;24.05;61.54
80759;BME280;70150;45.582;10.178;2023-07-09T00:19:38;100370.72;;;23.91;61.57
80759;BME280;70150;45.582;10.178;2023-07-09T00:22:11;100365.56;;;23.93;61.52
80759;BME280;70150;45.582;10.178;2023-07-09T00:24:38;100366.97;;;23.85;62.15
80759;BME280;70150;45.582;10.178;2023-07-09T00:27:08;100355.47;;;23.90;61.40
80759;BME280;70150;45.582;10.178;2023-07-09T00:29:34;100355.47;;;23.90;61.19
80759;BME280;70150;45.582;10.178;2023-07-09T00:32:00;100358.97;;;23.91;61.53
80759;BME280;70150;45.582;10.178;2023-07-09T00:34:25;100358.19;;;23.90;61.59
80759;BME280;70150;45.582;10.178;2023-07-09T00:36:51;100350.59;;;23.82;62.03
80759;BME280;70150;45.582;10.178;2023-07-09T00:39:18;100353.84;;;23.77;62.13
80759;BME280;70150;45.582;10.178;2023-07-09T00:41:44;100352.66;;;23.78;62.03
80759;BME280;70150;45.582;10.178;2023-07-09T00:49:14;100350.53;;;23.85;61.16
80759;BME280;70150;45.582;10.178;2023-07-09T00:51:45;100347.78;;;23.85;61.37
80759;BME280;70150;45.582;10.178;2023-07-09T00:54:22;100337.56;;;23.86;61.51
80759;BME280;70150;45.582;10.178;2023-07-09T00:56:51;100339.72;;;23.78;61.23
80759;BME280;70150;45.582;10.178;2023-07-09T00:59:22;100342.56;;;23.75;61.44
80759;BME280;70150;45.582;10.178;2023-07-09T01:01:50;100341.88;;;23.87;61.07
80759;BME280;70150;45.582;10.178;2023-07-09T01:04:16;100335.53;;;23.90;60.82
80759;BME280;70150;45.582;10.178;2023-07-09T01:06:51;100341.66;;;23.94;60.70
80759;BME280;70150;45.582;10.178;2023-07-09T01:09:18;100339.78;;;23.91;60.55
80759;BME280;70150;45.582;10.178;2023-07-09T01:11:44;100347.94;;;23.94;60.77
80759;BME280;70150;45.582;10.178;2023-07-09T01:14:13;100351.97;;;23.90;61.10
80759;BME280;70150;45.582;10.178;2023-07-09T01:16:45;100340.47;;;23.95;60.62
80759;BME280;70150;45.582;10.178;2023-07-09T01:19:12;100340.31;;;23.86;61.08
80759;BME280;70150;45.582;10.178;2023-07-09T01:21:39;100346.31;;;23.97;60.94
80759;BME280;70150;45.582;10.178;2023-07-09T01:26:39;100345.19;;;23.94;60.85
80759;BME280;70150;45.582;10.178;2023-07-09T01:29:05;100348.88;;;23.88;61.09
80759;BME280;70150;45.582;10.178;2023-07-09T01:31:33;100361.25;;;23.96;60.97
80759;BME280;70150;45.582;10.178;2023-07-09T01:34:01;100359.41;;;23.89;61.01
80759;BME280;70150;45.582;10.178;2023-07-09T01:36:27;100356.59;;;23.93;61.39
80759;BME280;70150;45.582;10.178;2023-07-09T01:38:56;100357.44;;;23.90;61.28
80759;BME280;70150;45.582;10.178;2023-07-09T01:41:22;100355.41;;;23.78;61.95
80759;BME280;70150;45.582;10.178;2023-07-09T01:43:47;100362.75;;;23.65;62.01
80759;BME280;70150;45.582;10.178;2023-07-09T01:46:13;100362.59;;;23.72;61.76
80759;BME280;70150;45.582;10.178;2023-07-09T01:48:40;100358.47;;;23.80;61.54
80759;BME280;70150;45.582;10.178;2023-07-09T01:51:09;100356.00;;;23.69;61.98
80759;BME280;70150;45.582;10.178;2023-07-09T01:53:35;100358.72;;;23.69;61.74
80759;BME280;70150;45.582;10.178;2023-07-09T01:56:03;100355.25;;;23.69;62.00
80759;BME280;70150;45.582;10.178;2023-07-09T01:58:29;100354.66;;;23.61;62.40
80759;BME280;70150;45.582;10.178;2023-07-09T02:00:58;100359.59;;;23.66;62.43
80759;BME280;70150;45.582;10.178;2023-07-09T02:03:23;100364.22;;;23.69;62.14
80759;BME280;70150;45.582;10.178;2023-07-09T02:05:53;100361.75;;;23.75;61.80
80759;BME280;70150;45.582;10.178;2023-07-09T02:08:19;100360.88;;;23.62;62.10
80759;BME280;70150;45.582;10.178;2023-07-09T02:10:47;100369.63;;;23.73;61.86
80759;BME280;70150;45.582;10.178;2023-07-09T02:13:13;100362.34;;;23.66;61.97
80759;BME280;70150;45.582;10.178;2023-07-09T02:15:39;100376.38;;;23.68;62.13
80759;BME280;70150;45.582;10.178;2023-07-09T02:18:10;100372.13;;;23.67;61.95
80759;BME280;70150;45.582;10.178;2023-07-09T02:20:35;100380.47;;;23.60;62.30
80759;BME280;70150;45.582;10.178;2023-07-09T02:23:04;100383.41;;;23.53;62.53
80759;BME280;70150;45.582;10.178;2023-07-09T02:25:30;100375.34;;;23.46;62.78
80759;BME280;70150;45.582;10.178;2023-07-09T02:27:56;100376.91;;;23.47;63.20
80759;BME280;70150;45.582;10.178;2023-07-09T02:30:21;100383.63;;;23.27;63.58
80759;BME280;70150;45.582;10.178;2023-07-09T02:32:47;100380.13;;;23.26;63.62
80759;BME280;70150;45.582;10.178;2023-07-09T02:35:12;100394.34;;;23.17;63.80
80759;BME280;70150;45.582;10.178;2023-07-09T02:37:40;100387.69;;;23.19;63.75
80759;BME280;70150;45.582;10.178;2023-07-09T02:40:08;100382.66;;;23.17;63.53
80759;BME280;70150;45.582;10.178;2023-07-09T02:42:35;100384.03;;;23.25;63.30
80759;BME280;70150;45.582;10.178;2023-07-09T02:45:02;100389.50;;;23.25;63.21
80759;BME280;70150;45.582;10.178;2023-07-09T02:47:28;100403.91;;;23.29;62.92
80759;BME280;70150;45.582;10.178;2023-07-09T02:49:53;100400.22;;;23.36;62.88
80759;BME280;70150;45.582;10.178;2023-07-09T02:52:19;100404.53;;;23.37;62.79
80759;BME280;70150;45.582;10.178;2023-07-09T02:54:45;100403.25;;;23.41;62.67
80759;BME280;70150;45.582;10.178;2023-07-09T02:57:11;100410.34;;;23.39;62.56
80759;BME280;70150;45.582;10.178;2023-07-09T02:59:37;100418.22;;;23.37;62.75
80759;BME280;70150;45.582;10.178;2023-07-09T03:02:05;100406.31;;;23.43;62.55
80759;BME280;70150;45.582;10.178;2023-07-09T03:04:31;100414.78;;;23.33;62.84
80759;BME280;70150;45.582;10.178;2023-07-09T03:06:57;100410.25;;;23.42;62.49
80759;BME280;70150;45.582;10.178;2023-07-09T03:09:22;100408.38;;;23.39;62.70
80759;BME280;70150;45.582;10.178;2023-07-09T03:11:50;100407.28;;;23.37;62.65
80759;BME280;70150;45.582;10.178;2023-07-09T03:14:16;100411.03;;;23.43;62.37
80759;BME280;70150;45.582;10.178;2023-07-09T03:16:42;100406.50;;;23.36;62.76
80759;BME280;70150;45.582;10.178;2023-07-09T03:19:07;100415.75;;;23.23;63.22
80759;BME280;70150;45.582;10.178;2023-07-09T03:21:33;100402.91;;;23.20;63.58
80759;BME280;70150;45.582;10.178;2023-07-09T03:23:59;100405.53;;;23.27;63.34
80759;BME280;70150;45.582;10.178;2023-07-09T03:26:25;100415.75;;;23.23;63.39
80759;BME280;70150;45.582;10.178;2023-07-09T03:28:51;100403.94;;;23.09;64.00
80759;BME280;70150;45.582;10.178;2023-07-09T03:31:18;100409.47;;;23.06;64.10
80759;BME280;70150;45.582;10.178;2023-07-09T03:33:43;100415.22;;;23.11;64.00
80759;BME280;70150;45.582;10.178;2023-07-09T03:36:11;100409.84;;;23.08;64.09
80759;BME280;70150;45.582;10.178;2023-07-09T03:38:38;100410.31;;;23.03;64.13
80759;BME280;70150;45.582;10.178;2023-07-09T03:41:04;100413.97;;;22.96;64.66
80759;BME280;70150;45.582;10.178;2023-07-09T03:43:30;100412.06;;;22.93;64.58
80759;BME280;70150;45.582;10.178;2023-07-09T03:45:58;100414.75;;;22.97;64.22
80759;BME280;70150;45.582;10.178;2023-07-09T03:48:23;100413.91;;;23.00;64.06
80759;BME280;70150;45.582;10.178;2023-07-09T03:50:49;100414.69;;;23.00;63.99
80759;BME280;70150;45.582;10.178;2023-07-09T03:53:16;100413.31;;;23.08;63.72
80759;BME280;70150;45.582;10.178;2023-07-09T03:55:43;100407.97;;;23.21;63.30
80759;BME280;70150;45.582;10.178;2023-07-09T03:58:10;100417.09;;;23.14;63.74
80759;BME280;70150;45.582;10.178;2023-07-09T04:00:38;100412.41;;;23.15;63.67
80759;BME280;70150;45.582;10.178;2023-07-09T04:03:05;100412.34;;;23.19;63.66
80759;BME280;70150;45.582;10.178;2023-07-09T04:05:33;100409.75;;;23.11;64.10
80759;BME280;70150;45.582;10.178;2023-07-09T04:07:59;100413.00;;;23.06;64.12
80759;BME280;70150;45.582;10.178;2023-07-09T04:10:27;100416.47;;;23.07;64.15
80759;BME280;70150;45.582;10.178;2023-07-09T04:12:53;100414.72;;;23.17;63.87
80759;BME280;70150;45.582;10.178;2023-07-09T04:15:19;100410.94;;;23.10;64.13
80759;BME280;70150;45.582;10.178;2023-07-09T04:17:46;100418.91;;;23.05;64.25
80759;BME280;70150;45.582;10.178;2023-07-09T04:20:12;100410.69;;;22.85;64.82
80759;BME280;70150;45.582;10.178;2023-07-09T04:22:39;100417.03;;;22.82;65.15
80759;BME280;70150;45.582;10.178;2023-07-09T04:25:07;100419.66;;;22.86;65.01
80759;BME280;70150;45.582;10.178;2023-07-09T04:27:35;100420.94;;;22.81;64.96
80759;BME280;70150;45.582;10.178;2023-07-09T04:30:01;100417.91;;;22.95;64.82
80759;BME280;70150;45.582;10.178;2023-07-09T04:32:27;100422.47;;;23.02;64.44
80759;BME280;70150;45.582;10.178;2023-07-09T04:34:53;100421.34;;;22.99;64.50
80759;BME280;70150;45.582;10.178;2023-07-09T04:37:19;100424.28;;;22.89;65.18
80759;BME280;70150;45.582;10.178;2023-07-09T04:39:45;100434.97;;;23.03;64.49
80759;BME280;70150;45.582;10.178;2023-07-09T04:42:12;100425.28;;;22.98;64.57
80759;BME280;70150;45.582;10.178;2023-07-09T04:44:38;100429.31;;;23.10;64.02
80759;BME280;70150;45.582;10.178;2023-07-09T04:47:04;100424.13;;;23.16;64.14
80759;BME280;70150;45.582;10.178;2023-07-09T04:49:33;100421.41;;;23.16;64.10
80759;BME280;70150;45.582;10.178;2023-07-09T04:51:59;100425.16;;;23.41;63.43
80759;BME280;70150;45.582;10.178;2023-07-09T04:54:25;100423.38;;;23.51;62.94
80759;BME280;70150;45.582;10.178;2023-07-09T04:56:51;100427.16;;;23.73;62.37
80759;BME280;70150;45.582;10.178;2023-07-09T04:59:18;100430.50;;;23.80;62.24
80759;BME280;70150;45.582;10.178;2023-07-09T05:01:46;100419.03;;;24.01;61.53
80759;BME280;70150;45.582;10.178;2023-07-09T05:04:11;100424.13;;;25.17;57.96
80759;BME280;70150;45.582;10.178;2023-07-09T05:06:37;100427.72;;;26.14;55.07
80759;BME280;70150;45.582;10.178;2023-07-09T05:09:04;100427.50;;;26.77;53.02
80759;BME280;70150;45.582;10.178;2023-07-09T05:11:32;100433.03;;;27.29;51.46
80759;BME280;70150;45.582;10.178;2023-07-09T05:13:58;100431.50;;;27.68;50.38
80759;BME280;70150;45.582;10.178;2023-07-09T05:16:24;100429.97;;;28.25;48.86
80759;BME280;70150;45.582;10.178;2023-07-09T05:18:50;100426.75;;;28.80;47.25
80759;BME280;70150;45.582;10.178;2023-07-09T05:21:15;100421.47;;;29.18;46.47
80759;BME280;70150;45.582;10.178;2023-07-09T05:23:41;100417.66;;;29.48;45.29
80759;BME280;70150;45.582;10.178;2023-07-09T05:26:07;100418.66;;;29.93;44.54
80759;BME280;70150;45.582;10.178;2023-07-09T05:28:32;100426.72;;;30.05;44.25
80759;BME280;70150;45.582;10.178;2023-07-09T05:30:59;100423.63;;;30.88;42.25
80759;BME280;70150;45.582;10.178;2023-07-09T05:33:24;100424.16;;;31.36;41.34
80759;BME280;70150;45.582;10.178;2023-07-09T05:35:52;100421.59;;;32.02;39.71
80759;BME280;70150;45.582;10.178;2023-07-09T05:38:18;100416.94;;;32.33;39.28
80759;BME280;70150;45.582;10.178;2023-07-09T05:40:44;100417.28;;;32.21;39.42
80759;BME280;70150;45.582;10.178;2023-07-09T05:43:10;100419.59;;;32.42;39.12
80759;BME280;70150;45.582;10.178;2023-07-09T05:45:38;100415.38;;;32.78;38.08
80759;BME280;70150;45.582;10.178;2023-07-09T05:48:04;100409.75;;;33.24;37.37
80759;BME280;70150;45.582;10.178;2023-07-09T05:50:33;100408.72;;;33.94;36.30
80759;BME280;70150;45.582;10.178;2023-07-09T05:52:59;100412.09;;;34.20;35.61
80759;BME280;70150;45.582;10.178;2023-07-09T05:55:25;100410.47;;;34.78;34.46
80759;BME280;70150;45.582;10.178;2023-07-09T05:57:52;100415.09;;;35.31;33.72
80759;BME280;70150;45.582;10.178;2023-07-09T06:00:18;100415.75;;;35.92;32.17
80759;BME280;70150;45.582;10.178;2023-07-09T06:02:43;100419.28;;;36.50;31.39
80759;BME280;70150;45.582;10.178;2023-07-09T06:05:09;100413.38;;;36.07;31.61
80759;BME280;70150;45.582;10.178;2023-07-09T06:07:36;100418.63;;;36.79;31.05
80759;BME280;70150;45.582;10.178;2023-07-09T06:10:03;100424.97;;;36.74;30.92
80759;BME280;70150;45.582;10.178;2023-07-09T06:12:31;100423.66;;;36.86;30.64
80759;BME280;70150;45.582;10.178;2023-07-09T06:14:59;100421.00;;;37.58;29.54
80759;BME280;70150;45.582;10.178;2023-07-09T06:17:25;100419.69;;;37.35;29.81
80759;BME280;70150;45.582;10.178;2023-07-09T06:19:50;100428.09;;;37.59;29.77
80759;BME280;70150;45.582;10.178;2023-07-09T06:22:16;100418.38;;;37.89;29.48
80759;BME280;70150;45.582;10.178;2023-07-09T06:24:42;100420.19;;;38.98;27.96
80759;BME280;70150;45.582;10.178;2023-07-09T06:27:09;100415.34;;;39.70;27.54
80759;BME280;70150;45.582;10.178;2023-07-09T06:29:34;100416.00;;;40.02;26.65
80759;BME280;70150;45.582;10.178;2023-07-09T06:32:00;100422.97;;;40.34;25.95
80759;BME280;70150;45.582;10.178;2023-07-09T06:34:25;100424.69;;;40.50;25.81
80759;BME280;70150;45.582;10.178;2023-07-09T06:36:51;100425.00;;;40.80;25.70
80759;BME280;70150;45.582;10.178;2023-07-09T06:39:18;100420.38;;;41.52;24.66
80759;BME280;70150;45.582;10.178;2023-07-09T06:41:45;100429.75;;;41.27;24.71
80759;BME280;70150;45.582;10.178;2023-07-09T06:44:10;100423.53;;;40.66;25.36
80759;BME280;70150;45.582;10.178;2023-07-09T06:46:36;100416.97;;;39.78;26.66
80759;BME280;70150;45.582;10.178;2023-07-09T06:49:03;100417.44;;;37.33;30.87
80759;BME280;70150;45.582;10.178;2023-07-09T06:51:32;100424.16;;;35.86;33.42
80759;BME280;70150;45.582;10.178;2023-07-09T06:53:58;100425.97;;;34.79;34.67
80759;BME280;70150;45.582;10.178;2023-07-09T06:56:23;100426.06;;;33.78;37.42
80759;BME280;70150;45.582;10.178;2023-07-09T06:58:49;100427.72;;;33.28;37.84
80759;BME280;70150;45.582;10.178;2023-07-09T07:01:15;100433.38;;;32.82;39.52
80759;BME280;70150;45.582;10.178;2023-07-09T07:03:41;100427.44;;;32.69;39.22
80759;BME280;70150;45.582;10.178;2023-07-09T07:06:06;100433.03;;;32.49;40.03
80759;BME280;70150;45.582;10.178;2023-07-09T07:08:33;100433.19;;;32.40;39.35
80759;BME280;70150;45.582;10.178;2023-07-09T07:11:01;100427.72;;;32.71;38.65
80759;BME280;70150;45.582;10.178;2023-07-09T07:13:30;100424.84;;;32.40;38.98
80759;BME280;70150;45.582;10.178;2023-07-09T07:15:56;100421.13;;;32.03;40.46
80759;BME280;70150;45.582;10.178;2023-07-09T07:18:24;100421.50;;;31.96;40.34
80759;BME280;70150;45.582;10.178;2023-07-09T07:20:50;100421.75;;;31.93;40.51
80759;BME280;70150;45.582;10.178;2023-07-09T07:23:16;100427.56;;;32.15;41.08
80759;BME280;70150;45.582;10.178;2023-07-09T07:25:42;100416.03;;;32.22;39.99
80759;BME280;70150;45.582;10.178;2023-07-09T07:28:07;100415.63;;;32.29;41.34
80759;BME280;70150;45.582;10.178;2023-07-09T07:30:33;100416.25;;;32.18;40.68
80759;BME280;70150;45.582;10.178;2023-07-09T07:32:59;100416.28;;;31.49;40.82
80759;BME280;70150;45.582;10.178;2023-07-09T07:35:24;100418.69;;;31.56;41.58
80759;BME280;70150;45.582;10.178;2023-07-09T07:37:50;100410.84;;;31.89;39.84
80759;BME280;70150;45.582;10.178;2023-07-09T07:40:16;100414.03;;;31.82;41.61
80759;BME280;70150;45.582;10.178;2023-07-09T07:42:41;100411.31;;;31.88;40.72
80759;BME280;70150;45.582;10.178;2023-07-09T07:45:08;100409.38;;;32.14;40.93
80759;BME280;70150;45.582;10.178;2023-07-09T07:47:34;100398.28;;;32.14;39.50
80759;BME280;70150;45.582;10.178;2023-07-09T07:50:05;100403.44;;;32.26;39.99
80759;BME280;70150;45.582;10.178;2023-07-09T07:52:31;100406.25;;;32.06;40.16
80759;BME280;70150;45.582;10.178;2023-07-09T07:54:56;100402.69;;;32.26;41.13
80759;BME280;70150;45.582;10.178;2023-07-09T07:57:27;100394.53;;;32.62;38.27
80759;BME280;70150;45.582;10.178;2023-07-09T07:59:52;100393.88;;;32.47;40.17
80759;BME280;70150;45.582;10.178;2023-07-09T08:02:18;100395.28;;;32.63;38.38
80759;BME280;70150;45.582;10.178;2023-07-09T08:04:44;100397.19;;;32.77;37.89
80759;BME280;70150;45.582;10.178;2023-07-09T08:07:10;100405.50;;;32.71;38.89
80759;BME280;70150;45.582;10.178;2023-07-09T08:09:36;100399.88;;;32.91;38.47
80759;BME280;70150;45.582;10.178;2023-07-09T08:12:05;100392.13;;;32.75;38.07
80759;BME280;70150;45.582;10.178;2023-07-09T08:14:36;100393.22;;;32.58;38.69
80759;BME280;70150;45.582;10.178;2023-07-09T08:17:01;100390.53;;;32.69;38.76
80759;BME280;70150;45.582;10.178;2023-07-09T08:19:27;100386.19;;;32.17;40.29
80759;BME280;70150;45.582;10.178;2023-07-09T08:21:53;100391.34;;;32.49;39.26
80759;BME280;70150;45.582;10.178;2023-07-09T08:24:18;100386.03;;;32.71;39.14
80759;BME280;70150;45.582;10.178;2023-07-09T08:26:44;100388.31;;;32.98;37.92
80759;BME280;70150;45.582;10.178;2023-07-09T08:29:12;100388.53;;;32.95;37.69
80759;BME280;70150;45.582;10.178;2023-07-09T08:31:38;100387.88;;;32.80;36.94
80759;BME280;70150;45.582;10.178;2023-07-09T08:34:05;100388.00;;;32.65;39.14
80759;BME280;70150;45.582;10.178;2023-07-09T08:36:31;100393.09;;;32.72;37.50
80759;BME280;70150;45.582;10.178;2023-07-09T08:38:57;100385.75;;;32.69;38.57
80759;BME280;70150;45.582;10.178;2023-07-09T08:41:33;100389.31;;;32.44;38.18
80759;BME280;70150;45.582;10.178;2023-07-09T08:44:06;100391.59;;;32.71;39.31
80759;BME280;70150;45.582;10.178;2023-07-09T08:49:14;100383.75;;;32.95;37.53
80759;BME280;70150;45.582;10.178;2023-07-09T08:51:44;100382.78;;;33.04;37.70
80759;BME280;70150;45.582;10.178;2023-07-09T08:54:17;100385.88;;;33.12;36.59
80759;BME280;70150;45.582;10.178;2023-07-09T08:56:48;100382.38;;;33.17;36.49
80759;BME280;70150;45.582;10.178;2023-07-09T08:59:16;100389.03;;;33.25;37.07
80759;BME280;70150;45.582;10.178;2023-07-09T09:01:50;100381.03;;;33.38;36.67
80759;BME280;70150;45.582;10.178;2023-07-09T09:06:51;100388.56;;;33.32;37.93
80759;BME280;70150;45.582;10.178;2023-07-09T09:09:28;100384.59;;;33.38;36.86
80759;BME280;70150;45.582;10.178;2023-07-09T09:14:30;100380.63;;;33.19;36.91
80759;BME280;70150;45.582;10.178;2023-07-09T09:16:58;100381.41;;;33.20;36.71
80759;BME280;70150;45.582;10.178;2023-07-09T09:19:29;100384.47;;;33.22;35.87
80759;BME280;70150;45.582;10.178;2023-07-09T09:22:05;100386.16;;;33.14;36.03
80759;BME280;70150;45.582;10.178;2023-07-09T09:24:38;100389.56;;;32.97;36.96
80759;BME280;70150;45.582;10.178;2023-07-09T09:27:08;100381.91;;;33.24;38.05
80759;BME280;70150;45.582;10.178;2023-07-09T09:29:33;100390.50;;;33.20;37.65
80759;BME280;70150;45.582;10.178;2023-07-09T09:32:08;100387.41;;;33.44;36.72
80759;BME280;70150;45.582;10.178;2023-07-09T09:34:40;100397.41;;;33.30;38.08
80759;BME280;70150;45.582;10.178;2023-07-09T09:37:10;100389.22;;;33.16;37.44
80759;BME280;70150;45.582;10.178;2023-07-09T09:39:38;100400.19;;;33.30;37.96
80759;BME280;70150;45.582;10.178;2023-07-09T09:42:10;100391.53;;;33.23;38.09
80759;BME280;70150;45.582;10.178;2023-07-09T09:44:43;100393.00;;;33.49;38.05
80759;BME280;70150;45.582;10.178;2023-07-09T09:47:10;100387.19;;;33.47;36.66
80759;BME280;70150;45.582;10.178;2023-07-09T09:49:40;100389.75;;;33.56;37.11
80759;BME280;70150;45.582;10.178;2023-07-09T09:52:12;100396.34;;;33.59;39.44
80759;BME280;70150;45.582;10.178;2023-07-09T09:54:40;100388.13;;;33.81;37.05
80759;BME280;70150;45.582;10.178;2023-07-09T09:59:38;100390.84;;;33.70;36.19
80759;BME280;70150;45.582;10.178;2023-07-09T10:02:16;100394.69;;;33.78;36.38
80759;BME280;70150;45.582;10.178;2023-07-09T10:04:43;100390.06;;;33.69;37.41
80759;BME280;70150;45.582;10.178;2023-07-09T10:07:18;100391.06;;;33.61;37.57
80759;BME280;70150;45.582;10.178;2023-07-09T10:09:47;100390.06;;;33.64;37.25
80759;BME280;70150;45.582;10.178;2023-07-09T10:12:32;100388.50;;;33.57;36.82
80759;BME280;70150;45.582;10.178;2023-07-09T10:20:01;100385.34;;;33.08;38.90
80759;BME280;70150;45.582;10.178;2023-07-09T10:27:48;100380.81;;;33.10;39.17
80759;BME280;70150;45.582;10.178;2023-07-09T10:40:37;100382.84;;;33.10;39.97
80759;BME280;70150;45.582;10.178;2023-07-09T10:43:04;100382.28;;;33.05;40.15
80759;BME280;70150;45.582;10.178;2023-07-09T10:45:37;100378.09;;;33.16;38.71
80759;BME280;70150;45.582;10.178;2023-07-09T10:48:12;100378.44;;;33.29;40.43
80759;BME280;70150;45.582;10.178;2023-07-09T10:50:43;100370.53;;;32.90;39.95
80759;BME280;70150;45.582;10.178;2023-07-09T10:53:15;100382.09;;;32.32;41.04
80759;BME280;70150;45.582;10.178;2023-07-09T10:55:50;100380.84;;;32.84;40.59
80759;BME280;70150;45.582;10.178;2023-07-09T11:00:51;100380.03;;;32.78;40.27
80759;BME280;70150;45.582;10.178;2023-07-09T11:03:22;100376.88;;;32.91;40.95
80759;BME280;70150;45.582;10.178;2023-07-09T11:05:50;100374.22;;;33.08;40.62
80759;BME280;70150;45.582;10.178;2023-07-09T11:08:18;100371.97;;;32.55;41.59
80759;BME280;70150;45.582;10.178;2023-07-09T11:10:52;100380.84;;;32.59;40.75
80759;BME280;70150;45.582;10.178;2023-07-09T11:13:31;100386.69;;;32.86;40.91
80759;BME280;70150;45.582;10.178;2023-07-09T11:15:59;100376.00;;;33.05;40.77
80759;BME280;70150;45.582;10.178;2023-07-09T11:18:31;100378.28;;;33.07;39.93
80759;BME280;70150;45.582;10.178;2023-07-09T11:21:05;100374.00;;;33.11;40.47
80759;BME280;70150;45.582;10.178;2023-07-09T11:26:14;100370.94;;;33.09;40.90
80759;BME280;70150;45.582;10.178;2023-07-09T11:28:45;100363.63;;;33.12;39.32
80759;BME280;70150;45.582;10.178;2023-07-09T11:33:46;100362.72;;;32.63;38.95
80759;BME280;70150;45.582;10.178;2023-07-09T11:36:14;100349.50;;;32.33;39.95
80759;BME280;70150;45.582;10.178;2023-07-09T11:38:48;100356.47;;;32.43;41.47
80759;BME280;70150;45.582;10.178;2023-07-09T11:43:48;100367.28;;;32.92;41.01
80759;BME280;70150;45.582;10.178;2023-07-09T11:46:22;100364.03;;;32.73;40.37
80759;BME280;70150;45.582;10.178;2023-07-09T11:48:50;100359.88;;;32.58;40.50
80759;BME280;70150;45.582;10.178;2023-07-09T11:51:17;100352.44;;;32.75;40.23
80759;BME280;70150;45.582;10.178;2023-07-09T11:53:50;100343.88;;;32.78;40.75
80759;BME280;70150;45.582;10.178;2023-07-09T11:56:19;100351.88;;;32.96;40.25
80759;BME280;70150;45.582;10.178;2023-07-09T11:58:50;100350.25;;;32.84;38.76
80759;BME280;70150;45.582;10.178;2023-07-09T12:01:19;100343.59;;;32.76;38.89
80759;BME280;70150;45.582;10.178;2023-07-09T12:03:46;100339.78;;;32.99;39.48
80759;BME280;70150;45.582;10.178;2023-07-09T12:08:50;100343.59;;;32.76;39.50
80759;BME280;70150;45.582;10.178;2023-07-09T12:13:46;100337.41;;;32.87;39.15
80759;BME280;70150;45.582;10.178;2023-07-09T12:18:49;100331.22;;;33.03;38.59
80759;BME280;70150;45.582;10.178;2023-07-09T12:21:18;100330.16;;;33.00;39.92
80759;BME280;70150;45.582;10.178;2023-07-09T12:23:44;100332.63;;;32.87;40.65
80759;BME280;70150;45.582;10.178;2023-07-09T12:26:14;100315.72;;;32.91;38.87
80759;BME280;70150;45.582;10.178;2023-07-09T12:28:40;100327.66;;;33.02;39.04
80759;BME280;70150;45.582;10.178;2023-07-09T12:31:12;100324.16;;;33.02;38.59
80759;BME280;70150;45.582;10.178;2023-07-09T12:33:46;100323.97;;;33.17;38.09
80759;BME280;70150;45.582;10.178;2023-07-09T12:36:13;100323.97;;;33.17;38.40
80759;BME280;70150;45.582;10.178;2023-07-09T12:38:43;100315.72;;;33.28;38.63
80759;BME280;70150;45.582;10.178;2023-07-09T12:43:42;100317.69;;;33.64;37.84
80759;BME280;70150;45.582;10.178;2023-07-09T12:46:08;100310.84;;;33.65;35.15
80759;BME280;70150;45.582;10.178;2023-07-09T12:48:36;100312.03;;;33.47;36.31
80759;BME280;70150;45.582;10.178;2023-07-09T12:51:07;100304.75;;;33.61;37.32
80759;BME280;70150;45.582;10.178;2023-07-09T12:53:33;100310.84;;;33.70;37.63
80759;BME280;70150;45.582;10.178;2023-07-09T12:56:00;100306.84;;;33.77;37.51
80759;BME280;70150;45.582;10.178;2023-07-09T12:58:30;100300.72;;;33.62;35.31
80759;BME280;70150;45.582;10.178;2023-07-09T13:00:57;100298.25;;;33.80;37.31
80759;BME280;70150;45.582;10.178;2023-07-09T13:03:29;100302.34;;;33.90;38.42
80759;BME280;70150;45.582;10.178;2023-07-09T13:08:30;100289.97;;;33.91;37.14
80759;BME280;70150;45.582;10.178;2023-07-09T13:10:57;100284.84;;;33.79;36.87
80759;BME280;70150;45.582;10.178;2023-07-09T13:13:25;100284.72;;;33.46;37.11
80759;BME280;70150;45.582;10.178;2023-07-09T13:15:53;100282.56;;;33.83;38.48
80759;BME280;70150;45.582;10.178;2023-07-09T13:18:23;100274.47;;;33.85;38.14
80759;BME280;70150;45.582;10.178;2023-07-09T13:20:51;100284.34;;;33.80;38.49
80759;BME280;70150;45.582;10.178;2023-07-09T13:23:22;100278.72;;;33.69;37.60
80759;BME280;70150;45.582;10.178;2023-07-09T13:25:48;100278.78;;;33.86;37.93
80759;BME280;70150;45.582;10.178;2023-07-09T13:28:20;100273.50;;;33.88;36.48
80759;BME280;70150;45.582;10.178;2023-07-09T13:30:47;100275.03;;;34.00;37.39
80759;BME280;70150;45.582;10.178;2023-07-09T13:33:13;100272.03;;;34.03;37.32
80759;BME280;70150;45.582;10.178;2023-07-09T13:35:40;100264.91;;;33.97;37.44
80759;BME280;70150;45.582;10.178;2023-07-09T13:38:11;100263.16;;;34.16;37.54
80759;BME280;70150;45.582;10.178;2023-07-09T13:40:39;100262.63;;;34.01;38.04
80759;BME280;70150;45.582;10.178;2023-07-09T13:43:11;100263.13;;;33.88;36.84
80759;BME280;70150;45.582;10.178;2023-07-09T13:45:38;100263.38;;;33.90;36.93
80759;BME280;70150;45.582;10.178;2023-07-09T13:48:12;100265.84;;;33.83;36.86